createdAt,value
2022-12-24T00:01:40.586Z,98978.53
2022-12-24T00:04:08.942Z,98973.41
2022-12-24T00:06:38.929Z,98976.00
2022-12-24T00:09:07.621Z,98969.88
2022-12-24T00:11:35.996Z,98969.88
2022-12-24T00:14:04.583Z,98972.59
2022-12-24T00:16:33.072Z,98972.50
2022-12-24T00:19:01.625Z,98968.19
2022-12-24T00:21:29.957Z,98971.72
2022-12-24T00:23:59.882Z,98963.91
2022-12-24T00:26:28.362Z,98964.81
2022-12-24T00:28:56.943Z,98970.16
2022-12-24T00:31:25.820Z,98970.28
2022-12-24T00:33:54.469Z,98966.91
2022-12-24T00:36:23.140Z,98971.31
2022-12-24T00:38:52.844Z,98975.69
2022-12-24T00:41:26.011Z,98970.66
2022-12-24T00:43:55.799Z,98975.75
2022-12-24T00:46:25.214Z,98983.66
2022-12-24T00:48:55.110Z,98973.19
2022-12-24T00:51:24.690Z,98974.94
2022-12-24T00:53:54.208Z,98973.19
2022-12-24T00:56:24.565Z,98968.00
2022-12-24T00:58:53.714Z,98964.53
2022-12-24T01:01:24.396Z,98961.88
2022-12-24T01:04:12.909Z,98973.16
2022-12-24T01:06:40.475Z,98966.16
2022-12-24T01:09:08.981Z,98967.16
2022-12-24T01:11:38.593Z,98963.84
2022-12-24T01:14:07.137Z,98963.91
2022-12-24T01:16:35.700Z,98968.28
2022-12-24T01:19:04.300Z,98970.94
2022-12-24T01:21:32.827Z,98967.41
2022-12-24T01:24:02.083Z,98975.09
2022-12-24T01:26:31.288Z,98964.63
2022-12-24T01:29:01.208Z,98967.28
2022-12-24T01:31:30.035Z,98963.06
2022-12-24T01:34:02.380Z,98958.84
2022-12-24T01:36:30.763Z,98957.13
2022-12-24T01:38:59.280Z,98959.66
2022-12-24T01:41:46.049Z,98954.53
2022-12-24T01:44:22.558Z,98953.66
2022-12-24T01:46:55.960Z,98953.56
2022-12-24T01:49:24.732Z,98958.69
2022-12-24T01:51:58.023Z,98951.81
2022-12-24T01:54:34.454Z,98951.75
2022-12-24T01:57:06.420Z,98950.91
2022-12-24T01:59:38.816Z,98951.47
2022-12-24T02:02:07.838Z,98943.84
2022-12-24T02:04:41.517Z,98951.53
2022-12-24T02:07:09.847Z,98941.16
2022-12-24T02:09:40.035Z,98944.66
2022-12-24T02:12:09.762Z,98943.94
2022-12-24T02:14:40.014Z,98938.94
2022-12-24T02:17:18.715Z,98942.50
2022-12-24T02:20:25.595Z,98939.13
2022-12-24T02:23:23.827Z,98935.69
2022-12-24T02:26:08.392Z,98935.75
2022-12-24T02:28:50.384Z,98932.50
2022-12-24T02:31:26.132Z,98929.13
2022-12-24T02:34:01.543Z,98935.94
2022-12-24T02:36:33.864Z,98930.81
2022-12-24T02:39:04.970Z,98933.47
2022-12-24T02:41:51.924Z,98929.97
2022-12-24T02:44:21.950Z,98936.97
2022-12-24T02:46:52.713Z,98938.81
2022-12-24T02:49:21.612Z,98932.88
2022-12-24T02:51:49.827Z,98935.63
2022-12-24T02:54:19.313Z,98939.91
2022-12-24T02:57:00.682Z,98936.53
2022-12-24T03:00:01.266Z,98934.09
2022-12-24T03:02:45.394Z,98943.53
2022-12-24T03:05:21.755Z,98938.34
2022-12-24T03:08:00.213Z,98943.53
2022-12-24T03:10:35.872Z,98937.47
2022-12-24T03:13:11.129Z,98941.78
2022-12-24T03:15:41.178Z,98941.84
2022-12-24T03:18:13.639Z,98943.53
2022-12-24T03:20:45.289Z,98945.22
2022-12-24T03:23:14.734Z,98949.44
2022-12-24T03:25:45.706Z,98946.84
2022-12-24T03:28:17.773Z,98944.25
2022-12-24T03:30:47.469Z,98951.28
2022-12-24T03:33:18.472Z,98943.41
2022-12-24T03:35:47.751Z,98943.34
2022-12-24T03:38:16.239Z,98935.56
2022-12-24T03:40:44.671Z,98946.03
2022-12-24T03:43:13.239Z,98941.00
2022-12-24T03:45:41.803Z,98939.31
2022-12-24T03:48:10.316Z,98945.41
2022-12-24T03:50:40.294Z,98942.94
2022-12-24T03:53:08.997Z,98942.09
2022-12-24T03:55:39.247Z,98943.91
2022-12-24T03:58:07.870Z,98942.94
2022-12-24T04:00:36.484Z,98946.44
2022-12-24T04:03:05.034Z,98948.28
2022-12-24T04:05:33.409Z,98944.03
2022-12-24T04:08:03.576Z,98943.31
2022-12-24T04:10:31.845Z,98944.41
2022-12-24T04:13:00.636Z,98944.53
2022-12-24T04:15:29.013Z,98950.69
2022-12-24T04:17:57.430Z,98951.78
2022-12-24T04:20:26.504Z,98951.06
2022-12-24T04:22:55.384Z,98953.78
2022-12-24T04:25:25.256Z,98959.88
2022-12-24T04:27:53.861Z,98953.06
2022-12-24T04:30:22.295Z,98953.97
2022-12-24T04:32:50.579Z,98950.56
2022-12-24T04:35:19.144Z,98954.03
2022-12-24T04:37:47.628Z,98954.03
2022-12-24T04:40:16.175Z,98951.44
2022-12-24T04:42:45.985Z,98949.75
2022-12-24T04:45:14.251Z,98946.34
2022-12-24T04:47:42.581Z,98947.31
2022-12-24T04:50:11.968Z,98950.75
2022-12-24T04:52:40.495Z,98949.00
2022-12-24T04:55:09.708Z,98951.66
2022-12-24T04:57:39.396Z,98946.47
2022-12-24T05:00:10.961Z,98942.16
2022-12-24T05:02:39.794Z,98942.97
2022-12-24T05:05:10.808Z,98948.88
2022-12-24T05:07:39.494Z,98948.81
2022-12-24T05:10:09.526Z,98950.50
2022-12-24T05:12:38.302Z,98947.91
2022-12-24T05:15:08.037Z,98956.50
2022-12-24T05:17:37.906Z,98949.50
2022-12-24T05:20:07.770Z,98952.84
2022-12-24T05:22:54.206Z,98952.38
2022-12-24T05:25:40.280Z,98950.56
2022-12-24T05:28:09.039Z,98952.28
2022-12-24T05:30:37.554Z,98949.72
2022-12-24T05:33:07.430Z,98944.03
2022-12-24T05:35:36.273Z,98940.94
2022-12-24T05:38:05.462Z,98945.44
2022-12-24T05:40:34.114Z,98937.06
2022-12-24T05:43:02.425Z,98938.91
2022-12-24T05:45:30.792Z,98941.66
2022-12-24T05:47:59.242Z,98943.44
2022-12-24T05:50:29.152Z,98940.88
2022-12-24T05:53:06.671Z,98941.03
2022-12-24T05:55:35.953Z,98948.88
2022-12-24T05:58:04.315Z,98944.59
2022-12-24T06:00:32.752Z,98950.66
2022-12-24T06:03:01.964Z,98955.03
2022-12-24T06:05:31.826Z,98957.56
2022-12-24T06:08:00.541Z,98960.16
2022-12-24T06:10:28.824Z,98966.22
2022-12-24T06:12:57.327Z,98961.94
2022-12-24T06:15:25.619Z,98957.66
2022-12-24T06:17:53.897Z,98960.94
2022-12-24T06:20:22.221Z,98961.19
2022-12-24T06:22:52.381Z,98968.16
2022-12-24T06:25:21.025Z,98968.16
2022-12-24T06:27:49.353Z,98975.16
2022-12-24T06:30:18.788Z,98973.50
2022-12-24T06:32:47.741Z,98979.44
2022-12-24T06:35:16.775Z,98972.47
2022-12-24T06:37:45.319Z,98967.19
2022-12-24T06:40:19.765Z,98974.94
2022-12-24T06:42:48.120Z,98980.13
2022-12-24T06:45:17.851Z,98987.00
2022-12-24T06:47:47.232Z,98987.75
2022-12-24T06:50:15.631Z,98986.84
2022-12-24T06:52:44.364Z,98985.03
2022-12-24T06:55:13.381Z,98987.56
2022-12-24T06:57:43.392Z,98986.66
2022-12-24T07:00:14.034Z,98981.47
2022-12-24T07:02:43.135Z,98986.59
2022-12-24T07:05:13.183Z,98987.41
2022-12-24T07:07:43.709Z,98989.19
2022-12-24T07:10:13.718Z,98998.63
2022-12-24T07:12:43.763Z,98998.75
2022-12-24T07:15:16.555Z,98999.59
2022-12-24T07:17:45.888Z,99010.81
2022-12-24T07:20:15.999Z,99012.56
2022-12-24T07:22:45.135Z,99008.38
2022-12-24T07:25:13.996Z,99012.75
2022-12-24T07:27:44.039Z,99016.22
2022-12-24T07:30:13.826Z,99024.09
2022-12-24T07:32:42.154Z,99014.69
2022-12-24T07:35:10.891Z,99021.59
2022-12-24T07:37:39.519Z,99010.34
2022-12-24T07:40:10.130Z,99010.44
2022-12-24T07:42:38.904Z,99018.09
2022-12-24T07:45:10.289Z,99013.72
2022-12-24T07:47:39.198Z,99022.28
2022-12-24T07:50:09.198Z,99012.75
2022-12-24T07:52:37.810Z,99017.03
2022-12-24T07:55:07.133Z,99022.13
2022-12-24T07:57:35.562Z,99014.19
2022-12-24T08:00:05.040Z,99019.22
2022-12-24T08:02:42.292Z,99026.78
2022-12-24T08:05:12.199Z,99028.31
2022-12-24T08:07:40.849Z,99030.84
2022-12-24T08:10:10.342Z,99034.16
2022-12-24T08:12:38.863Z,99031.44
2022-12-24T08:15:08.436Z,99033.94
2022-12-24T08:17:36.968Z,99038.22
2022-12-24T08:20:08.338Z,99028.63
2022-12-24T08:22:36.784Z,99030.31
2022-12-24T08:25:05.990Z,99037.19
2022-12-24T08:27:34.659Z,99035.41
2022-12-24T08:30:03.619Z,99043.25
2022-12-24T08:32:32.302Z,99044.94
2022-12-24T08:35:01.103Z,99046.75
2022-12-24T08:37:31.309Z,99054.59
2022-12-24T08:39:59.968Z,99056.38
2022-12-24T08:42:28.851Z,99061.59
2022-12-24T08:44:57.610Z,99069.31
2022-12-24T08:47:26.242Z,99068.34
2022-12-24T08:49:54.847Z,99060.56
2022-12-24T08:52:23.777Z,99067.41
2022-12-24T08:54:53.670Z,99076.97
2022-12-24T08:57:22.647Z,99077.78
2022-12-24T08:59:51.336Z,99082.09
2022-12-24T09:02:21.518Z,99080.34
2022-12-24T09:04:51.104Z,99087.22
2022-12-24T09:07:19.553Z,99090.66
2022-12-24T09:09:48.616Z,99092.41
2022-12-24T09:12:18.889Z,99093.31
2022-12-24T09:14:47.566Z,99090.72
2022-12-24T09:17:16.331Z,99083.59
2022-12-24T09:19:44.950Z,99093.63
2022-12-24T09:22:14.489Z,99083.97
2022-12-24T09:24:43.257Z,99085.75
2022-12-24T09:27:12.796Z,99096.19
2022-12-24T09:29:43.677Z,99094.56
2022-12-24T09:32:12.511Z,99093.84
2022-12-24T09:34:41.183Z,99098.00
2022-12-24T09:37:09.574Z,99094.56
2022-12-24T09:39:38.551Z,99097.16
2022-12-24T09:42:25.788Z,99103.22
2022-12-24T09:45:00.267Z,99102.34
2022-12-24T09:47:42.941Z,99090.13
2022-12-24T10:09:55.080Z,99104.25
2022-12-24T10:12:34.161Z,99111.38
2022-12-24T10:15:18.302Z,99118.25
2022-12-24T10:18:01.577Z,99133.78
2022-12-24T10:20:58.931Z,99122.53
2022-12-24T10:23:38.964Z,99132.94
2022-12-24T10:30:04.450Z,99144.53
2022-12-24T10:32:35.014Z,99142.78
2022-12-24T10:35:17.483Z,99145.38
2022-12-24T10:37:49.424Z,99143.63
2022-12-24T10:43:50.233Z,99139.97
2022-12-24T10:46:33.009Z,99138.13
2022-12-24T10:49:03.962Z,99144.19
2022-12-24T10:51:43.146Z,99145.81
2022-12-24T10:54:19.473Z,99151.69
2022-12-24T10:56:55.225Z,99149.75
2022-12-24T10:59:44.182Z,99154.84
2022-12-24T11:02:30.532Z,99153.22
2022-12-24T11:05:02.840Z,99155.81
2022-12-24T11:07:33.429Z,99156.69
2022-12-24T11:10:05.067Z,99147.28
2022-12-24T11:17:09.619Z,99162.19
2022-12-24T11:19:54.188Z,99165.75
2022-12-24T11:22:25.953Z,99170.13
2022-12-24T11:25:05.813Z,99165.81
2022-12-24T11:27:47.482Z,99172.78
2022-12-24T11:30:36.561Z,99182.38
2022-12-24T11:33:22.911Z,99191.03
2022-12-24T11:35:58.998Z,99193.63
2022-12-24T11:38:29.086Z,99197.13
2022-12-24T11:41:22.216Z,99205.94
2022-12-24T11:44:08.660Z,99207.63
2022-12-24T11:46:40.338Z,99213.66
2022-12-24T11:49:19.018Z,99216.09
2022-12-24T11:52:29.845Z,99223.13
2022-12-24T11:55:18.867Z,99230.13
2022-12-24T11:57:55.426Z,99232.38
2022-12-24T12:00:24.344Z,99226.44
2022-12-24T12:02:54.601Z,99240.31
2022-12-24T12:05:30.138Z,99240.19
2022-12-24T12:08:14.301Z,99243.59
2022-12-24T12:10:47.853Z,99241.75
2022-12-24T12:13:20.708Z,99255.56
2022-12-24T12:16:08.007Z,99251.19
2022-12-24T12:18:51.882Z,99261.72
2022-12-24T12:21:27.062Z,99263.53
2022-12-24T12:24:02.680Z,99272.31
2022-12-24T12:26:32.476Z,99279.44
2022-12-24T12:29:07.727Z,99276.91
2022-12-24T12:31:41.601Z,99280.41
2022-12-24T12:34:20.565Z,99290.91
2022-12-24T12:36:52.912Z,99298.88
2022-12-24T12:39:25.502Z,99295.41
2022-12-24T12:42:03.016Z,99299.78
2022-12-24T12:44:57.004Z,99299.72
2022-12-24T12:47:40.025Z,99303.34
2022-12-24T12:50:16.007Z,99311.09
2022-12-24T12:53:00.409Z,99318.94
2022-12-24T12:55:40.731Z,99328.41
2022-12-24T12:58:18.030Z,99343.09
2022-12-24T13:00:50.910Z,99341.31
2022-12-24T13:04:10.641Z,99337.00
2022-12-24T13:07:04.238Z,99343.00
2022-12-24T13:10:05.135Z,99358.59
2022-12-24T13:12:57.521Z,99360.28
2022-12-24T13:15:38.233Z,99361.97
2022-12-24T13:18:31.740Z,99371.47
2022-12-24T13:21:01.172Z,99374.22
2022-12-24T13:23:33.724Z,99388.22
2022-12-24T13:26:12.688Z,99388.28
2022-12-24T13:28:43.916Z,99394.38
2022-12-24T13:31:34.050Z,99397.94
2022-12-24T13:34:05.015Z,99405.03
2022-12-24T13:37:10.303Z,99398.13
2022-12-24T13:40:18.248Z,99405.94
2022-12-24T13:43:13.081Z,99414.78
2022-12-24T13:45:59.297Z,99417.38
2022-12-24T13:48:34.702Z,99426.97
2022-12-24T13:51:21.101Z,99430.34
2022-12-24T13:53:51.160Z,99424.22
2022-12-24T13:56:28.037Z,99432.06
2022-12-24T13:59:13.943Z,99437.38
2022-12-24T14:01:46.223Z,99445.16
2022-12-24T14:04:26.720Z,99452.09
2022-12-24T14:06:57.994Z,99456.53
2022-12-24T14:09:28.696Z,99472.94
2022-12-24T14:12:32.194Z,99476.50
2022-12-24T14:15:39.431Z,99476.53
2022-12-24T14:18:10.086Z,99484.28
2022-12-24T14:20:39.694Z,99485.19
2022-12-24T14:23:21.936Z,99487.78
2022-12-24T14:25:51.303Z,99486.09
2022-12-24T14:28:23.831Z,99483.47
2022-12-24T14:31:01.790Z,99488.47
2022-12-24T14:33:33.959Z,99489.47
2022-12-24T14:36:03.987Z,99495.50
2022-12-24T14:38:33.815Z,99501.56
2022-12-24T14:41:09.628Z,99510.28
2022-12-24T14:43:51.799Z,99512.88
2022-12-24T14:46:26.675Z,99520.00
2022-12-24T14:48:59.056Z,99525.16
2022-12-24T14:51:37.529Z,99529.56
2022-12-24T14:54:32.657Z,99539.16
2022-12-24T14:57:22.087Z,99546.91
2022-12-24T14:59:54.160Z,99560.78
2022-12-24T15:02:26.619Z,99566.84
2022-12-24T15:05:13.577Z,99572.91
2022-12-24T15:07:47.927Z,99571.19
2022-12-24T15:10:30.552Z,99578.06
2022-12-24T15:13:03.307Z,99578.13
2022-12-24T15:15:32.702Z,99588.38
2022-12-24T15:18:03.941Z,99580.50
2022-12-24T15:20:34.575Z,99590.84
2022-12-24T15:23:03.372Z,99586.56
2022-12-24T15:25:34.550Z,99602.09
2022-12-24T15:28:03.686Z,99602.09
2022-12-24T15:30:32.643Z,99608.16
2022-12-24T15:33:02.498Z,99604.69
2022-12-24T15:35:49.837Z,99612.47
2022-12-24T15:38:30.016Z,99608.97
2022-12-24T15:40:59.803Z,99615.97
2022-12-24T15:43:29.596Z,99616.88
2022-12-24T15:45:58.815Z,99621.16
2022-12-24T15:48:31.635Z,99630.66
2022-12-24T15:51:04.747Z,99626.38
2022-12-24T15:53:36.893Z,99627.16
2022-12-24T15:56:09.449Z,99634.81
2022-12-24T15:58:41.510Z,99627.00
2022-12-24T16:01:30.276Z,99628.75
2022-12-24T16:04:04.051Z,99632.25
2022-12-24T16:06:54.683Z,99631.38
2022-12-24T16:09:45.138Z,99627.88
2022-12-24T16:12:31.410Z,99629.59
2022-12-24T16:15:01.816Z,99624.50
2022-12-24T16:17:33.816Z,99633.91
2022-12-24T16:20:07.161Z,99617.47
2022-12-24T16:22:37.499Z,99632.28
2022-12-24T16:25:23.919Z,99636.56
2022-12-24T16:27:57.304Z,99646.97
2022-12-24T16:30:29.749Z,99653.97
2022-12-24T16:32:58.524Z,99662.63
2022-12-24T16:35:29.034Z,99653.28
2022-12-24T16:37:59.226Z,99667.94
2022-12-24T16:40:28.420Z,99668.81
2022-12-24T16:43:15.550Z,99680.06
2022-12-24T16:45:45.630Z,99683.38
2022-12-24T16:48:22.872Z,99685.16
2022-12-24T16:50:54.897Z,99688.59
2022-12-24T16:53:25.449Z,99687.81
2022-12-24T16:55:54.305Z,99686.06
2022-12-24T16:58:23.469Z,99690.41
2022-12-24T17:00:52.047Z,99699.09
2022-12-24T17:03:21.143Z,99703.47
2022-12-24T17:05:49.965Z,99709.56
2022-12-24T17:08:18.872Z,99714.75
2022-12-24T17:10:53.100Z,99718.25
2022-12-24T17:13:21.792Z,99717.47
2022-12-24T17:15:51.527Z,99717.47
2022-12-24T17:18:22.037Z,99715.69
2022-12-24T17:21:00.732Z,99727.84
2022-12-24T17:23:32.205Z,99732.16
2022-12-24T17:26:07.550Z,99742.53
2022-12-24T17:28:41.457Z,99741.66
2022-12-24T17:31:10.777Z,99742.53
2022-12-24T17:33:39.564Z,99750.28
2022-12-24T17:36:08.997Z,99749.44
2022-12-24T17:38:39.326Z,99750.31
2022-12-24T17:41:13.144Z,99751.22
2022-12-24T17:43:41.732Z,99755.56
2022-12-24T17:46:13.369Z,99754.69
2022-12-24T17:48:42.459Z,99758.19
2022-12-24T17:51:14.800Z,99754.78
2022-12-24T17:53:44.797Z,99762.50
2022-12-24T17:56:15.602Z,99761.69
2022-12-24T17:58:45.826Z,99761.69
2022-12-24T18:01:16.038Z,99769.50
2022-12-24T18:03:45.393Z,99772.97
2022-12-24T18:06:14.909Z,99776.38
2022-12-24T18:08:46.613Z,99780.75
2022-12-24T18:11:18.496Z,99786.78
2022-12-24T18:13:47.551Z,99785.97
2022-12-24T18:16:18.756Z,99792.91
2022-12-24T18:18:48.585Z,99787.72
2022-12-24T18:21:18.307Z,99791.22
2022-12-24T18:23:49.719Z,99792.91
2022-12-24T18:26:20.383Z,99803.31
2022-12-24T18:28:49.481Z,99803.31
2022-12-24T18:31:20.817Z,99805.09
2022-12-24T18:33:51.182Z,99805.09
2022-12-24T18:36:20.700Z,99811.19
2022-12-24T18:38:49.710Z,99807.72
2022-12-24T18:41:23.128Z,99809.47
2022-12-24T18:43:52.475Z,99814.66
2022-12-24T18:46:23.691Z,99816.31
2022-12-24T18:48:53.023Z,99812.91
2022-12-24T18:51:24.406Z,99824.09
2022-12-24T18:53:53.299Z,99828.34
2022-12-24T18:56:25.386Z,99831.81
2022-12-24T18:58:56.220Z,99837.84
2022-12-24T19:01:27.525Z,99836.97
2022-12-24T19:03:56.805Z,99838.72
2022-12-24T19:06:26.124Z,99842.16
2022-12-24T19:08:57.880Z,99843.91
2022-12-24T19:11:30.646Z,99848.28
2022-12-24T19:13:59.557Z,99852.63
2022-12-24T19:16:29.835Z,99857.81
2022-12-24T19:18:59.318Z,99860.44
2022-12-24T19:21:28.384Z,99862.16
2022-12-24T19:23:57.280Z,99865.63
2022-12-24T19:26:26.024Z,99869.94
2022-12-24T19:28:56.520Z,99873.44
2022-12-24T19:31:26.827Z,99874.28
2022-12-24T19:33:57.288Z,99889.91
2022-12-24T19:36:28.522Z,99886.41
2022-12-24T19:38:57.674Z,99889.91
2022-12-24T19:41:28.473Z,99897.72
2022-12-24T19:44:01.199Z,99892.56
2022-12-24T19:46:32.629Z,99897.72
2022-12-24T19:49:05.356Z,99902.03
2022-12-24T19:51:35.087Z,99898.59
2022-12-24T19:54:04.919Z,99889.94
2022-12-24T19:56:34.454Z,99885.66
2022-12-24T19:59:05.092Z,99886.59
2022-12-24T20:01:35.602Z,99889.22
2022-12-24T20:04:06.640Z,99890.13
2022-12-24T20:06:36.592Z,99903.09
2022-12-24T20:09:08.177Z,99897.13
2022-12-24T20:11:37.276Z,99914.41
2022-12-24T20:14:08.325Z,99922.25
2022-12-24T20:16:37.412Z,99918.03
2022-12-24T20:19:08.428Z,99918.97
2022-12-24T20:21:38.180Z,99929.41
2022-12-24T20:24:08.109Z,99930.34
2022-12-24T20:26:37.729Z,99937.22
2022-12-24T20:29:09.772Z,99925.16
2022-12-24T20:31:39.536Z,99935.53
2022-12-24T20:34:09.016Z,99938.97
2022-12-24T20:36:38.593Z,99943.31
2022-12-24T20:39:08.212Z,99945.03
2022-12-24T20:41:37.781Z,99936.34
2022-12-24T20:44:08.099Z,99935.53
2022-12-24T20:46:36.812Z,99935.53
2022-12-24T20:49:06.511Z,99937.28
2022-12-24T20:51:35.400Z,99945.97
2022-12-24T20:54:04.155Z,99948.53
2022-12-24T20:56:32.944Z,99942.47
2022-12-24T20:59:02.867Z,99948.53
2022-12-24T21:01:34.552Z,99952.88
2022-12-24T21:04:07.016Z,99959.84
2022-12-24T21:06:36.501Z,99959.00
2022-12-24T21:09:05.998Z,99948.75
2022-12-24T21:11:52.542Z,99967.81
2022-12-24T21:14:23.574Z,99966.00
2022-12-24T21:16:55.556Z,99978.06
2022-12-24T21:19:26.143Z,99973.69
2022-12-24T21:21:55.307Z,99974.56
2022-12-24T21:24:24.715Z,99978.03
2022-12-24T21:26:55.454Z,99974.66
2022-12-24T21:29:25.584Z,99989.34
2022-12-24T21:31:57.290Z,99978.13
2022-12-24T21:34:26.447Z,99984.22
2022-12-24T21:36:55.162Z,99981.66
2022-12-24T21:39:25.870Z,99980.78
2022-12-24T21:41:54.741Z,99974.69
2022-12-24T21:44:23.386Z,99968.66
2022-12-24T21:46:52.587Z,99971.38
2022-12-24T21:49:40.020Z,99974.03
2022-12-24T21:52:08.572Z,99973.09
2022-12-24T21:54:36.635Z,99978.25
2022-12-24T21:57:25.990Z,99991.25
2022-12-24T21:59:56.018Z,99991.25
2022-12-24T22:02:28.776Z,99992.09
2022-12-24T22:04:59.277Z,99987.72
2022-12-24T22:07:46.915Z,99982.56
2022-12-24T22:10:33.230Z,99980.91
2022-12-24T22:13:06.457Z,99994.75
2022-12-24T22:15:35.606Z,99994.72
2022-12-24T22:18:04.567Z,99993.97
2022-12-24T22:20:35.650Z,100000.91
2022-12-24T22:23:04.396Z,99998.28
2022-12-24T22:25:33.585Z,99997.34
2022-12-24T22:28:02.314Z,99991.25
2022-12-24T22:30:31.395Z,99989.59
2022-12-24T22:33:00.440Z,99989.63
2022-12-24T22:35:29.185Z,99996.56
2022-12-24T22:38:00.427Z,99985.44
2022-12-24T22:40:29.579Z,99989.88
2022-12-24T22:42:58.896Z,100007.09
2022-12-24T22:45:27.577Z,100000.16
2022-12-24T22:47:56.478Z,99998.44
2022-12-24T22:50:27.133Z,100004.56
2022-12-24T22:52:56.567Z,100004.53
2022-12-24T22:55:27.033Z,99999.34
2022-12-24T22:57:55.760Z,99998.44
2022-12-24T23:00:40.294Z,99997.66
2022-12-24T23:03:10.244Z,99997.69
2022-12-24T23:05:39.144Z,100005.47
2022-12-24T23:08:08.985Z,100006.28
2022-12-24T23:10:40.170Z,100009.75
2022-12-24T23:13:26.218Z,99997.53
2022-12-24T23:15:54.890Z,100003.50
2022-12-24T23:18:23.571Z,100004.47
2022-12-24T23:20:52.312Z,100000.19
2022-12-24T23:23:21.031Z,100008.88
2022-12-24T23:25:51.197Z,100017.53
2022-12-24T23:28:20.584Z,100020.13
2022-12-24T23:30:59.205Z,100008.84
2022-12-24T23:33:28.496Z,100007.03
2022-12-24T23:35:57.690Z,100003.50
2022-12-24T23:38:26.408Z,100000.03
2022-12-24T23:40:58.409Z,100021.69
2022-12-24T23:43:27.323Z,100020.91
2022-12-24T23:45:56.318Z,100020.03
2022-12-24T23:48:26.339Z,100017.50
2022-12-24T23:51:04.875Z,100024.44
2022-12-24T23:53:33.794Z,100040.03
2022-12-24T23:56:04.394Z,100046.09
2022-12-24T23:58:33.140Z,100048.69
